createdAt,value
2022-11-04T00:03:33.592Z,11.10
2022-11-04T00:10:52.603Z,11.00
2022-11-04T00:17:53.329Z,11.00
2022-11-04T00:25:12.726Z,10.90
2022-11-04T00:32:31.648Z,10.90
2022-11-04T00:39:32.147Z,10.90
2022-11-04T00:46:34.087Z,10.80
2022-11-04T00:53:34.459Z,10.80
2022-11-04T01:00:34.991Z,10.70
2022-11-04T01:07:41.062Z,10.70
2022-11-04T01:14:44.114Z,10.70
2022-11-04T01:21:44.503Z,10.80
2022-11-04T01:28:45.913Z,10.80
2022-11-04T01:35:46.696Z,10.80
2022-11-04T01:42:47.159Z,10.80
2022-11-04T01:49:56.194Z,10.90
2022-11-04T01:56:59.168Z,10.90
2022-11-04T02:04:19.149Z,10.80
2022-11-04T02:11:38.156Z,10.80
2022-11-04T02:19:08.444Z,10.70
2022-11-04T02:26:28.920Z,10.60
2022-11-04T02:33:57.049Z,10.40
2022-11-04T02:41:39.384Z,10.30
2022-11-04T02:48:41.154Z,10.20
2022-11-04T02:55:46.724Z,10.00
2022-11-04T03:02:58.288Z,9.90
2022-11-04T03:10:08.159Z,9.90
2022-11-04T03:17:18.139Z,9.80
2022-11-04T03:24:18.471Z,9.80
2022-11-04T03:31:29.462Z,9.70
2022-11-04T03:38:29.768Z,9.70
2022-11-04T03:45:30.310Z,9.60
2022-11-04T03:52:31.141Z,9.60
2022-11-04T03:59:48.675Z,9.50
2022-11-04T04:06:53.568Z,9.50
2022-11-04T04:14:13.113Z,9.50
2022-11-04T04:21:20.305Z,9.50
2022-11-04T04:28:21.905Z,9.50
2022-11-04T04:35:42.486Z,9.50
2022-11-04T04:43:03.343Z,9.40
2022-11-04T04:50:05.318Z,9.30
2022-11-04T04:57:05.709Z,9.20
2022-11-04T05:04:06.489Z,9.10
2022-11-04T05:11:07.459Z,9.00
2022-11-04T05:18:08.367Z,9.00
2022-11-04T05:25:09.476Z,8.90
2022-11-04T05:32:09.860Z,8.70
2022-11-04T05:39:13.060Z,8.60
2022-11-04T05:46:13.775Z,8.40
2022-11-04T05:53:14.654Z,8.30
2022-11-04T06:00:15.900Z,8.30
2022-11-04T06:07:16.528Z,8.20
2022-11-04T06:14:18.836Z,8.10
2022-11-04T06:21:22.622Z,8.00
2022-11-04T06:28:23.667Z,7.90
2022-11-04T06:35:24.342Z,7.80
2022-11-04T06:42:26.810Z,7.80
2022-11-04T06:49:27.480Z,7.80
2022-11-04T06:56:27.932Z,7.70
2022-11-04T07:03:28.689Z,7.70
2022-11-04T07:10:29.779Z,7.80
2022-11-04T07:17:30.845Z,7.90
2022-11-04T07:24:31.714Z,8.00
2022-11-04T07:31:32.327Z,8.20
2022-11-04T07:38:33.444Z,8.40
2022-11-04T07:45:34.189Z,8.50
2022-11-04T07:52:34.556Z,8.70
2022-11-04T07:59:35.067Z,8.80
2022-11-04T08:06:35.461Z,8.90
2022-11-04T08:13:37.476Z,8.90
2022-11-04T08:20:38.297Z,9.00
2022-11-04T08:27:38.679Z,9.00
2022-11-04T08:34:40.065Z,9.10
2022-11-04T08:41:42.995Z,9.20
2022-11-04T08:48:43.996Z,9.30
2022-11-04T08:55:44.652Z,9.50
2022-11-04T09:02:44.994Z,9.70
2022-11-04T09:09:45.268Z,9.80
2022-11-04T09:16:45.739Z,10.00
2022-11-04T09:23:46.605Z,10.10
2022-11-04T09:30:47.022Z,10.10
2022-11-04T09:37:47.453Z,10.20
2022-11-04T09:45:20.523Z,10.30
2022-11-04T09:52:24.379Z,10.40
2022-11-04T09:59:32.311Z,10.50
2022-11-04T10:07:00.537Z,10.70
2022-11-04T10:14:24.304Z,10.80
2022-11-04T10:21:36.793Z,11.20
2022-11-04T10:28:47.601Z,11.40
2022-11-04T10:36:01.571Z,11.60
2022-11-04T10:43:09.421Z,11.80
2022-11-04T10:50:30.223Z,12.00
2022-11-04T10:57:31.018Z,12.20
2022-11-04T11:04:34.046Z,12.50
2022-11-04T11:11:38.124Z,12.70
2022-11-04T11:18:39.431Z,12.90
2022-11-04T11:25:48.840Z,13.10
2022-11-04T11:32:53.875Z,13.20
2022-11-04T11:39:54.015Z,13.30
2022-11-04T11:46:57.730Z,13.20
2022-11-04T11:54:08.426Z,13.10
2022-11-04T12:01:32.108Z,12.90
2022-11-04T12:16:27.576Z,12.80
2022-11-04T12:23:30.118Z,12.70
2022-11-04T12:30:57.099Z,12.80
2022-11-04T12:38:08.266Z,12.80
2022-11-04T12:45:45.652Z,12.80
2022-11-04T12:52:55.106Z,12.80
2022-11-04T13:00:10.852Z,12.80
2022-11-04T13:07:24.682Z,12.80
2022-11-04T13:14:29.754Z,12.80
2022-11-04T13:21:36.138Z,12.70
2022-11-04T13:28:40.411Z,12.80
2022-11-04T13:35:57.255Z,12.90
2022-11-04T13:43:28.515Z,13.00
2022-11-04T13:50:38.355Z,13.00
2022-11-04T13:58:03.225Z,12.90
2022-11-04T14:05:23.557Z,12.80
2022-11-04T14:12:29.989Z,12.80
2022-11-04T14:19:56.588Z,12.80
2022-11-04T14:26:56.744Z,12.80
2022-11-04T14:33:57.808Z,12.80
2022-11-04T14:41:29.251Z,12.60
2022-11-04T14:48:31.035Z,12.40
2022-11-04T14:55:32.689Z,12.30
2022-11-04T15:02:35.359Z,12.10
2022-11-04T15:09:46.814Z,12.10
2022-11-04T15:16:50.274Z,12.00
2022-11-04T15:23:55.542Z,12.00
2022-11-04T15:31:21.826Z,12.00
2022-11-04T15:38:23.636Z,12.00
2022-11-04T15:45:51.547Z,11.90
2022-11-04T15:52:55.494Z,11.90
2022-11-04T16:00:08.014Z,11.80
2022-11-04T16:07:17.431Z,11.70
2022-11-04T16:14:26.757Z,11.60
2022-11-04T16:21:32.771Z,11.50
2022-11-04T16:28:37.882Z,11.40
2022-11-04T16:35:42.598Z,11.30
2022-11-04T16:42:44.061Z,11.10
2022-11-04T16:49:45.105Z,11.00
2022-11-04T16:56:45.731Z,10.90
2022-11-04T17:03:46.538Z,10.90
2022-11-04T17:10:46.838Z,10.90
2022-11-04T17:17:47.313Z,10.80
2022-11-04T17:24:47.819Z,10.60
2022-11-04T17:31:47.958Z,10.50
2022-11-04T17:38:48.486Z,10.40
2022-11-04T17:46:08.862Z,10.40
2022-11-04T17:53:09.951Z,10.50
2022-11-04T18:00:14.066Z,10.40
2022-11-04T18:07:14.446Z,10.30
2022-11-04T18:14:17.224Z,10.30
2022-11-04T18:21:17.714Z,10.20
2022-11-04T18:28:17.868Z,10.20
2022-11-04T18:35:18.542Z,10.20
2022-11-04T18:42:18.888Z,10.20
2022-11-04T18:49:20.499Z,10.20
2022-11-04T18:56:22.401Z,10.10
2022-11-04T19:03:23.392Z,10.00
2022-11-04T19:10:23.912Z,10.00
2022-11-04T19:17:25.123Z,10.00
2022-11-04T19:24:25.417Z,10.00
2022-11-04T19:31:28.879Z,10.00
2022-11-04T19:38:29.473Z,9.90
2022-11-04T19:45:29.907Z,9.90
2022-11-04T19:52:31.051Z,9.80
2022-11-04T19:59:31.820Z,9.80
2022-11-04T20:06:35.486Z,9.70
2022-11-04T20:13:43.910Z,9.70
2022-11-04T20:20:43.897Z,9.60
2022-11-04T20:27:44.207Z,9.60
2022-11-04T20:34:44.730Z,9.80
2022-11-04T20:41:46.088Z,9.70
2022-11-04T20:48:47.644Z,9.60
2022-11-04T20:55:48.835Z,9.50
2022-11-04T21:02:49.225Z,9.50
2022-11-04T21:09:51.169Z,9.50
2022-11-04T21:16:51.944Z,9.50
2022-11-04T21:23:56.781Z,9.50
2022-11-04T21:31:06.492Z,9.50
2022-11-04T21:38:08.418Z,9.60
2022-11-04T21:45:09.507Z,9.60
2022-11-04T21:52:10.079Z,9.70
2022-11-04T21:59:14.137Z,9.70
2022-11-04T22:06:19.056Z,9.70
2022-11-04T22:13:19.296Z,9.70
2022-11-04T22:20:19.822Z,9.70
2022-11-04T22:27:20.056Z,9.70
2022-11-04T22:34:20.448Z,9.70
2022-11-04T22:41:25.017Z,9.60
2022-11-04T22:48:25.395Z,9.60
2022-11-04T22:55:26.039Z,9.60
2022-11-04T23:02:32.469Z,9.50
2022-11-04T23:09:56.808Z,9.40
2022-11-04T23:17:18.053Z,9.20
2022-11-04T23:24:36.993Z,9.20
2022-11-04T23:31:37.358Z,9.10
2022-11-04T23:38:37.966Z,9.00
2022-11-04T23:45:57.087Z,9.00
2022-11-04T23:53:16.290Z,9.00
